sensor_id;sensor_type;location;lat;lon;timestamp;temperature;humidity
36444;DHT22;24692;45.642;13.806;2023-03-26T00:00:45;11.20;99.90
36444;DHT22;24692;45.642;13.806;2023-03-26T00:03:15;11.20;99.90
36444;DHT22;24692;45.642;13.806;2023-03-26T00:05:41;11.20;99.90
36444;DHT22;24692;45.642;13.806;2023-03-26T00:08:08;11.30;99.90
36444;DHT22;24692;45.642;13.806;2023-03-26T00:10:36;11.20;99.90
36444;DHT22;24692;45.642;13.806;2023-03-26T00:13:03;11.20;99.90
36444;DHT22;24692;45.642;13.806;2023-03-26T00:15:29;11.20;99.90
36444;DHT22;24692;45.642;13.806;2023-03-26T00:17:54;11.20;99.90
36444;DHT22;24692;45.642;13.806;2023-03-26T00:20:21;11.10;99.90
36444;DHT22;24692;45.642;13.806;2023-03-26T00:22:47;11.10;99.90
36444;DHT22;24692;45.642;13.806;2023-03-26T00:25:13;11.10;99.90
36444;DHT22;24692;45.642;13.806;2023-03-26T00:27:39;11.20;99.90
36444;DHT22;24692;45.642;13.806;2023-03-26T00:30:05;11.20;99.90
36444;DHT22;24692;45.642;13.806;2023-03-26T00:32:32;11.20;99.90
36444;DHT22;24692;45.642;13.806;2023-03-26T00:34:57;11.20;99.90
36444;DHT22;24692;45.642;13.806;2023-03-26T00:37:25;11.20;99.90
36444;DHT22;24692;45.642;13.806;2023-03-26T00:39:52;11.20;99.90
36444;DHT22;24692;45.642;13.806;2023-03-26T00:42:18;11.20;99.90
36444;DHT22;24692;45.642;13.806;2023-03-26T00:44:44;11.20;99.90
36444;DHT22;24692;45.642;13.806;2023-03-26T00:47:09;11.20;99.90
36444;DHT22;24692;45.642;13.806;2023-03-26T00:49:35;11.20;99.90
36444;DHT22;24692;45.642;13.806;2023-03-26T00:52:01;11.20;99.90
36444;DHT22;24692;45.642;13.806;2023-03-26T00:54:28;11.10;99.90
36444;DHT22;24692;45.642;13.806;2023-03-26T00:56:53;11.10;99.90
36444;DHT22;24692;45.642;13.806;2023-03-26T00:59:21;11.10;99.90
36444;DHT22;24692;45.642;13.806;2023-03-26T01:01:48;11.20;99.90
36444;DHT22;24692;45.642;13.806;2023-03-26T01:04:30;11.20;99.90
36444;DHT22;24692;45.642;13.806;2023-03-26T01:07:16;11.20;99.90
36444;DHT22;24692;45.642;13.806;2023-03-26T01:09:48;11.30;99.90
36444;DHT22;24692;45.642;13.806;2023-03-26T01:12:19;11.20;99.90
36444;DHT22;24692;45.642;13.806;2023-03-26T01:14:48;11.10;99.90
36444;DHT22;24692;45.642;13.806;2023-03-26T01:17:15;11.10;99.90
36444;DHT22;24692;45.642;13.806;2023-03-26T01:19:48;11.10;99.90
36444;DHT22;24692;45.642;13.806;2023-03-26T01:22:21;11.20;99.90
36444;DHT22;24692;45.642;13.806;2023-03-26T01:24:48;11.20;99.90
36444;DHT22;24692;45.642;13.806;2023-03-26T01:27:30;11.20;99.90
36444;DHT22;24692;45.642;13.806;2023-03-26T01:40:35;11.10;99.90
36444;DHT22;24692;45.642;13.806;2023-03-26T01:45:46;11.20;99.90
36444;DHT22;24692;45.642;13.806;2023-03-26T01:48:14;11.20;99.90
36444;DHT22;24692;45.642;13.806;2023-03-26T01:50:40;11.20;99.90
36444;DHT22;24692;45.642;13.806;2023-03-26T01:53:07;11.20;99.90
36444;DHT22;24692;45.642;13.806;2023-03-26T01:58:29;11.10;99.90
36444;DHT22;24692;45.642;13.806;2023-03-26T02:03:52;11.30;99.90
36444;DHT22;24692;45.642;13.806;2023-03-26T02:06:46;11.40;99.90
36444;DHT22;24692;45.642;13.806;2023-03-26T02:09:21;11.40;99.90
36444;DHT22;24692;45.642;13.806;2023-03-26T02:11:48;11.40;99.90
36444;DHT22;24692;45.642;13.806;2023-03-26T02:14:15;11.50;99.90
36444;DHT22;24692;45.642;13.806;2023-03-26T02:16:41;11.50;99.90
36444;DHT22;24692;45.642;13.806;2023-03-26T02:19:12;11.60;99.90
36444;DHT22;24692;45.642;13.806;2023-03-26T02:21:40;11.50;99.90
36444;DHT22;24692;45.642;13.806;2023-03-26T02:24:06;11.50;99.90
36444;DHT22;24692;45.642;13.806;2023-03-26T02:26:34;11.50;99.90
36444;DHT22;24692;45.642;13.806;2023-03-26T02:29:00;11.50;99.90
36444;DHT22;24692;45.642;13.806;2023-03-26T02:31:26;11.50;99.90
36444;DHT22;24692;45.642;13.806;2023-03-26T02:33:53;11.60;99.90
36444;DHT22;24692;45.642;13.806;2023-03-26T02:36:20;11.70;99.90
36444;DHT22;24692;45.642;13.806;2023-03-26T02:38:49;11.70;99.90
36444;DHT22;24692;45.642;13.806;2023-03-26T02:41:16;11.70;99.90
36444;DHT22;24692;45.642;13.806;2023-03-26T02:43:42;11.60;99.90
36444;DHT22;24692;45.642;13.806;2023-03-26T02:46:08;11.60;99.90
36444;DHT22;24692;45.642;13.806;2023-03-26T02:48:33;11.60;99.90
36444;DHT22;24692;45.642;13.806;2023-03-26T02:51:00;11.70;99.90
36444;DHT22;24692;45.642;13.806;2023-03-26T02:53:26;11.70;99.90
36444;DHT22;24692;45.642;13.806;2023-03-26T02:55:56;11.70;99.90
36444;DHT22;24692;45.642;13.806;2023-03-26T02:58:22;11.70;99.90
36444;DHT22;24692;45.642;13.806;2023-03-26T03:00:50;11.70;99.90
36444;DHT22;24692;45.642;13.806;2023-03-26T03:03:20;11.60;99.90
36444;DHT22;24692;45.642;13.806;2023-03-26T03:05:49;11.60;99.90
36444;DHT22;24692;45.642;13.806;2023-03-26T03:08:17;11.60;99.90
36444;DHT22;24692;45.642;13.806;2023-03-26T03:10:43;11.70;99.90
36444;DHT22;24692;45.642;13.806;2023-03-26T03:13:08;11.60;99.90
36444;DHT22;24692;45.642;13.806;2023-03-26T03:15:34;11.60;99.90
36444;DHT22;24692;45.642;13.806;2023-03-26T03:18:00;11.50;99.90
36444;DHT22;24692;45.642;13.806;2023-03-26T03:20:26;11.60;99.90
36444;DHT22;24692;45.642;13.806;2023-03-26T03:22:51;11.60;99.90
36444;DHT22;24692;45.642;13.806;2023-03-26T03:25:17;11.60;99.90
36444;DHT22;24692;45.642;13.806;2023-03-26T03:27:46;11.80;99.90
36444;DHT22;24692;45.642;13.806;2023-03-26T03:30:12;11.90;99.90
36444;DHT22;24692;45.642;13.806;2023-03-26T03:32:38;12.00;99.90
36444;DHT22;24692;45.642;13.806;2023-03-26T03:35:05;12.00;99.90
36444;DHT22;24692;45.642;13.806;2023-03-26T03:37:30;12.00;99.90
36444;DHT22;24692;45.642;13.806;2023-03-26T03:39:56;11.90;99.90
36444;DHT22;24692;45.642;13.806;2023-03-26T03:42:22;11.90;99.90
36444;DHT22;24692;45.642;13.806;2023-03-26T03:44:47;11.90;99.90
36444;DHT22;24692;45.642;13.806;2023-03-26T03:47:13;11.90;99.90
36444;DHT22;24692;45.642;13.806;2023-03-26T03:49:40;11.90;99.90
36444;DHT22;24692;45.642;13.806;2023-03-26T03:52:06;11.90;99.90
36444;DHT22;24692;45.642;13.806;2023-03-26T03:54:31;11.90;99.90
36444;DHT22;24692;45.642;13.806;2023-03-26T03:56:57;11.90;99.90
36444;DHT22;24692;45.642;13.806;2023-03-26T03:59:23;11.80;99.90
36444;DHT22;24692;45.642;13.806;2023-03-26T04:01:49;11.80;99.90
36444;DHT22;24692;45.642;13.806;2023-03-26T04:04:15;11.80;99.90
36444;DHT22;24692;45.642;13.806;2023-03-26T04:06:41;11.80;99.90
36444;DHT22;24692;45.642;13.806;2023-03-26T04:09:07;11.80;99.90
36444;DHT22;24692;45.642;13.806;2023-03-26T04:11:35;11.70;99.90
36444;DHT22;24692;45.642;13.806;2023-03-26T04:14:00;11.70;99.90
36444;DHT22;24692;45.642;13.806;2023-03-26T04:16:26;11.70;99.90
36444;DHT22;24692;45.642;13.806;2023-03-26T04:18:52;11.70;99.90
36444;DHT22;24692;45.642;13.806;2023-03-26T04:21:17;11.70;99.90
36444;DHT22;24692;45.642;13.806;2023-03-26T04:23:43;11.80;99.90
36444;DHT22;24692;45.642;13.806;2023-03-26T04:26:15;11.80;99.90
36444;DHT22;24692;45.642;13.806;2023-03-26T04:28:42;11.90;99.90
36444;DHT22;24692;45.642;13.806;2023-03-26T04:31:14;11.90;99.90
36444;DHT22;24692;45.642;13.806;2023-03-26T04:33:44;11.90;99.90
36444;DHT22;24692;45.642;13.806;2023-03-26T04:36:14;11.90;99.90
36444;DHT22;24692;45.642;13.806;2023-03-26T04:38:44;11.90;99.90
36444;DHT22;24692;45.642;13.806;2023-03-26T04:41:12;12.00;99.90
36444;DHT22;24692;45.642;13.806;2023-03-26T04:43:38;11.90;99.90
36444;DHT22;24692;45.642;13.806;2023-03-26T04:46:07;11.90;99.90
36444;DHT22;24692;45.642;13.806;2023-03-26T04:48:35;11.90;99.90
36444;DHT22;24692;45.642;13.806;2023-03-26T04:51:03;11.90;99.90
36444;DHT22;24692;45.642;13.806;2023-03-26T04:53:31;11.90;99.90
36444;DHT22;24692;45.642;13.806;2023-03-26T04:56:05;11.90;99.90
36444;DHT22;24692;45.642;13.806;2023-03-26T04:58:33;11.90;99.90
36444;DHT22;24692;45.642;13.806;2023-03-26T05:01:00;11.90;99.90
36444;DHT22;24692;45.642;13.806;2023-03-26T05:03:28;12.00;99.90
36444;DHT22;24692;45.642;13.806;2023-03-26T05:06:00;12.00;99.90
36444;DHT22;24692;45.642;13.806;2023-03-26T05:08:26;12.10;99.90
36444;DHT22;24692;45.642;13.806;2023-03-26T05:10:54;12.10;99.90
36444;DHT22;24692;45.642;13.806;2023-03-26T05:13:21;12.00;99.90
36444;DHT22;24692;45.642;13.806;2023-03-26T05:15:47;12.00;99.90
36444;DHT22;24692;45.642;13.806;2023-03-26T05:18:12;12.10;99.90
36444;DHT22;24692;45.642;13.806;2023-03-26T05:20:38;12.20;99.90
36444;DHT22;24692;45.642;13.806;2023-03-26T05:23:04;12.30;99.90
36444;DHT22;24692;45.642;13.806;2023-03-26T05:25:31;12.40;99.90
36444;DHT22;24692;45.642;13.806;2023-03-26T05:27:59;12.40;99.90
36444;DHT22;24692;45.642;13.806;2023-03-26T05:30:25;12.30;99.90
36444;DHT22;24692;45.642;13.806;2023-03-26T05:32:51;12.40;99.90
36444;DHT22;24692;45.642;13.806;2023-03-26T05:35:17;12.40;99.90
36444;DHT22;24692;45.642;13.806;2023-03-26T05:37:44;12.40;99.90
36444;DHT22;24692;45.642;13.806;2023-03-26T05:40:12;12.50;99.90
36444;DHT22;24692;45.642;13.806;2023-03-26T05:42:39;12.60;99.90
36444;DHT22;24692;45.642;13.806;2023-03-26T05:45:06;12.70;99.90
36444;DHT22;24692;45.642;13.806;2023-03-26T05:47:32;12.80;99.90
36444;DHT22;24692;45.642;13.806;2023-03-26T05:49:58;12.80;99.90
36444;DHT22;24692;45.642;13.806;2023-03-26T05:52:24;12.90;99.90
36444;DHT22;24692;45.642;13.806;2023-03-26T05:54:50;12.90;99.90
36444;DHT22;24692;45.642;13.806;2023-03-26T05:57:15;13.00;99.90
36444;DHT22;24692;45.642;13.806;2023-03-26T05:59:43;13.00;99.90
36444;DHT22;24692;45.642;13.806;2023-03-26T06:02:09;13.10;99.90
36444;DHT22;24692;45.642;13.806;2023-03-26T06:04:35;13.20;99.90
36444;DHT22;24692;45.642;13.806;2023-03-26T06:07:05;13.30;99.90
36444;DHT22;24692;45.642;13.806;2023-03-26T06:09:35;13.40;99.90
36444;DHT22;24692;45.642;13.806;2023-03-26T06:12:08;13.40;99.90
36444;DHT22;24692;45.642;13.806;2023-03-26T06:14:35;13.50;99.90
36444;DHT22;24692;45.642;13.806;2023-03-26T06:17:00;13.60;99.90
36444;DHT22;24692;45.642;13.806;2023-03-26T06:19:26;13.60;99.90
36444;DHT22;24692;45.642;13.806;2023-03-26T06:21:52;13.70;99.90
36444;DHT22;24692;45.642;13.806;2023-03-26T06:24:18;13.80;99.90
36444;DHT22;24692;45.642;13.806;2023-03-26T06:26:45;13.90;99.90
36444;DHT22;24692;45.642;13.806;2023-03-26T06:29:12;13.90;99.90
36444;DHT22;24692;45.642;13.806;2023-03-26T06:31:39;14.00;99.90
36444;DHT22;24692;45.642;13.806;2023-03-26T06:34:05;14.10;99.90
36444;DHT22;24692;45.642;13.806;2023-03-26T06:36:30;14.20;99.90
36444;DHT22;24692;45.642;13.806;2023-03-26T06:38:56;14.10;99.90
36444;DHT22;24692;45.642;13.806;2023-03-26T06:41:22;14.10;99.90
36444;DHT22;24692;45.642;13.806;2023-03-26T06:43:47;14.10;99.90
36444;DHT22;24692;45.642;13.806;2023-03-26T06:46:14;14.20;99.90
36444;DHT22;24692;45.642;13.806;2023-03-26T06:48:40;14.30;99.90
36444;DHT22;24692;45.642;13.806;2023-03-26T06:51:07;14.30;99.90
36444;DHT22;24692;45.642;13.806;2023-03-26T06:53:33;14.30;99.90
36444;DHT22;24692;45.642;13.806;2023-03-26T06:55:59;14.40;99.90
36444;DHT22;24692;45.642;13.806;2023-03-26T06:58:25;14.40;99.90
36444;DHT22;24692;45.642;13.806;2023-03-26T07:00:55;14.60;99.90
36444;DHT22;24692;45.642;13.806;2023-03-26T07:03:21;14.60;99.90
36444;DHT22;24692;45.642;13.806;2023-03-26T07:05:47;14.70;99.90
36444;DHT22;24692;45.642;13.806;2023-03-26T07:08:13;14.70;99.90
36444;DHT22;24692;45.642;13.806;2023-03-26T07:10:39;14.80;99.90
36444;DHT22;24692;45.642;13.806;2023-03-26T07:13:06;14.90;99.90
36444;DHT22;24692;45.642;13.806;2023-03-26T07:15:31;14.90;99.90
36444;DHT22;24692;45.642;13.806;2023-03-26T07:17:57;14.90;99.90
36444;DHT22;24692;45.642;13.806;2023-03-26T07:20:23;14.90;99.90
36444;DHT22;24692;45.642;13.806;2023-03-26T07:22:49;15.00;99.90
36444;DHT22;24692;45.642;13.806;2023-03-26T07:25:16;15.20;99.90
36444;DHT22;24692;45.642;13.806;2023-03-26T07:31:06;15.80;99.90
36444;DHT22;24692;45.642;13.806;2023-03-26T07:33:59;16.20;99.90
36444;DHT22;24692;45.642;13.806;2023-03-26T07:36:44;16.50;99.90
36444;DHT22;24692;45.642;13.806;2023-03-26T07:39:58;16.80;99.90
36444;DHT22;24692;45.642;13.806;2023-03-26T07:48:21;20.10;99.90
36444;DHT22;24692;45.642;13.806;2023-03-26T07:50:54;20.40;99.90
36444;DHT22;24692;45.642;13.806;2023-03-26T07:53:21;21.50;99.90
36444;DHT22;24692;45.642;13.806;2023-03-26T07:56:16;22.10;99.90
36444;DHT22;24692;45.642;13.806;2023-03-26T08:07:04;22.60;99.90
36444;DHT22;24692;45.642;13.806;2023-03-26T08:09:58;22.70;99.90
36444;DHT22;24692;45.642;13.806;2023-03-26T08:15:28;21.90;99.90
36444;DHT22;24692;45.642;13.806;2023-03-26T08:18:21;21.70;99.90
36444;DHT22;24692;45.642;13.806;2023-03-26T08:20:55;21.60;99.90
36444;DHT22;24692;45.642;13.806;2023-03-26T08:23:31;21.40;99.90
36444;DHT22;24692;45.642;13.806;2023-03-26T08:31:09;21.70;99.90
36444;DHT22;24692;45.642;13.806;2023-03-26T08:33:35;22.00;99.90
36444;DHT22;24692;45.642;13.806;2023-03-26T08:36:01;22.70;99.90
36444;DHT22;24692;45.642;13.806;2023-03-26T08:38:27;23.60;99.90
36444;DHT22;24692;45.642;13.806;2023-03-26T08:49:15;23.60;99.90
36444;DHT22;24692;45.642;13.806;2023-03-26T08:51:54;23.20;99.90
36444;DHT22;24692;45.642;13.806;2023-03-26T09:13:46;22.50;99.90
36444;DHT22;24692;45.642;13.806;2023-03-26T09:34:06;22.30;99.90
36444;DHT22;24692;45.642;13.806;2023-03-26T09:36:56;21.00;99.90
36444;DHT22;24692;45.642;13.806;2023-03-26T09:39:54;21.50;99.90
36444;DHT22;24692;45.642;13.806;2023-03-26T10:01:19;19.20;99.90
36444;DHT22;24692;45.642;13.806;2023-03-26T10:03:57;19.10;99.90
36444;DHT22;24692;45.642;13.806;2023-03-26T10:10:11;19.50;99.90
36444;DHT22;24692;45.642;13.806;2023-03-26T10:12:24;19.60;99.90
36444;DHT22;24692;45.642;13.806;2023-03-26T10:18:29;19.30;99.90
36444;DHT22;24692;45.642;13.806;2023-03-26T10:21:00;19.30;99.90
36444;DHT22;24692;45.642;13.806;2023-03-26T10:32:20;19.20;99.90
36444;DHT22;24692;45.642;13.806;2023-03-26T10:35:05;18.70;99.90
36444;DHT22;24692;45.642;13.806;2023-03-26T10:40:30;18.60;99.90
36444;DHT22;24692;45.642;13.806;2023-03-26T10:56:50;18.80;99.90
36444;DHT22;24692;45.642;13.806;2023-03-26T10:59:17;17.90;99.90
36444;DHT22;24692;45.642;13.806;2023-03-26T11:04:42;17.60;99.90
36444;DHT22;24692;45.642;13.806;2023-03-26T11:12:40;17.50;99.90
36444;DHT22;24692;45.642;13.806;2023-03-26T11:15:18;17.20;99.90
36444;DHT22;24692;45.642;13.806;2023-03-26T11:20:37;17.50;99.90
36444;DHT22;24692;45.642;13.806;2023-03-26T11:26:11;18.20;99.90
36444;DHT22;24692;45.642;13.806;2023-03-26T11:34:01;19.00;99.90
36444;DHT22;24692;45.642;13.806;2023-03-26T11:36:34;19.00;99.90
36444;DHT22;24692;45.642;13.806;2023-03-26T11:39:04;18.50;99.90
36444;DHT22;24692;45.642;13.806;2023-03-26T11:41:33;18.00;99.90
36444;DHT22;24692;45.642;13.806;2023-03-26T11:46:48;17.90;99.90
36444;DHT22;24692;45.642;13.806;2023-03-26T11:49:17;18.30;99.90
36444;DHT22;24692;45.642;13.806;2023-03-26T11:51:46;18.40;99.90
36444;DHT22;24692;45.642;13.806;2023-03-26T11:54:12;18.60;99.90
36444;DHT22;24692;45.642;13.806;2023-03-26T11:56:47;18.20;99.90
36444;DHT22;24692;45.642;13.806;2023-03-26T11:59:36;17.70;99.90
36444;DHT22;24692;45.642;13.806;2023-03-26T12:04:45;18.20;99.90
36444;DHT22;24692;45.642;13.806;2023-03-26T12:07:32;18.30;99.90
36444;DHT22;24692;45.642;13.806;2023-03-26T12:10:00;17.90;99.90
36444;DHT22;24692;45.642;13.806;2023-03-26T12:12:47;18.00;99.90
36444;DHT22;24692;45.642;13.806;2023-03-26T12:15:17;18.40;99.90
36444;DHT22;24692;45.642;13.806;2023-03-26T12:17:48;18.90;99.90
36444;DHT22;24692;45.642;13.806;2023-03-26T12:22:49;19.90;99.90
36444;DHT22;24692;45.642;13.806;2023-03-26T12:25:18;20.50;99.90
36444;DHT22;24692;45.642;13.806;2023-03-26T12:27:59;20.80;99.90
36444;DHT22;24692;45.642;13.806;2023-03-26T12:30:33;20.50;99.90
36444;DHT22;24692;45.642;13.806;2023-03-26T12:33:03;21.00;99.90
36444;DHT22;24692;45.642;13.806;2023-03-26T12:35:31;21.80;99.90
36444;DHT22;24692;45.642;13.806;2023-03-26T12:38:29;22.60;99.90
36444;DHT22;24692;45.642;13.806;2023-03-26T12:41:09;24.20;99.90
36444;DHT22;24692;45.642;13.806;2023-03-26T12:46:31;25.30;99.90
36444;DHT22;24692;45.642;13.806;2023-03-26T12:49:06;24.50;99.90
36444;DHT22;24692;45.642;13.806;2023-03-26T12:51:47;23.40;99.90
36444;DHT22;24692;45.642;13.806;2023-03-26T12:57:23;23.40;99.90
36444;DHT22;24692;45.642;13.806;2023-03-26T13:03:19;23.20;99.90
36444;DHT22;24692;45.642;13.806;2023-03-26T13:09:46;22.30;99.90
36444;DHT22;24692;45.642;13.806;2023-03-26T13:23:47;20.60;99.90
36444;DHT22;24692;45.642;13.806;2023-03-26T13:26:30;20.20;99.90
36444;DHT22;24692;45.642;13.806;2023-03-26T13:29:19;20.50;99.90
36444;DHT22;24692;45.642;13.806;2023-03-26T13:32:18;20.30;99.90
36444;DHT22;24692;45.642;13.806;2023-03-26T13:37:27;20.00;99.90
36444;DHT22;24692;45.642;13.806;2023-03-26T13:43:04;19.70;99.90
36444;DHT22;24692;45.642;13.806;2023-03-26T13:48:12;20.20;99.90
36444;DHT22;24692;45.642;13.806;2023-03-26T13:50:43;21.30;99.90
36444;DHT22;24692;45.642;13.806;2023-03-26T13:53:18;22.00;99.90
36444;DHT22;24692;45.642;13.806;2023-03-26T13:55:55;22.90;99.90
36444;DHT22;24692;45.642;13.806;2023-03-26T13:58:40;23.10;99.90
36444;DHT22;24692;45.642;13.806;2023-03-26T14:01:17;21.70;99.90
36444;DHT22;24692;45.642;13.806;2023-03-26T14:09:03;22.70;99.90
36444;DHT22;24692;45.642;13.806;2023-03-26T14:11:38;21.50;99.90
36444;DHT22;24692;45.642;13.806;2023-03-26T14:14:44;20.20;99.90
36444;DHT22;24692;45.642;13.806;2023-03-26T14:37:19;18.60;99.90
36444;DHT22;24692;45.642;13.806;2023-03-26T14:40:13;18.80;99.90
36444;DHT22;24692;45.642;13.806;2023-03-26T14:45:40;18.20;99.90
36444;DHT22;24692;45.642;13.806;2023-03-26T14:51:25;18.40;99.90
36444;DHT22;24692;45.642;13.806;2023-03-26T14:54:16;18.40;99.90
36444;DHT22;24692;45.642;13.806;2023-03-26T15:41:31;17.30;99.90
36444;DHT22;24692;45.642;13.806;2023-03-26T15:54:29;17.30;99.90
36444;DHT22;24692;45.642;13.806;2023-03-26T15:57:16;17.40;99.90
36444;DHT22;24692;45.642;13.806;2023-03-26T16:00:17;17.40;99.90
36444;DHT22;24692;45.642;13.806;2023-03-26T16:11:03;17.10;99.90
36444;DHT22;24692;45.642;13.806;2023-03-26T16:13:37;17.10;99.90
36444;DHT22;24692;45.642;13.806;2023-03-26T16:18:38;17.10;99.90
36444;DHT22;24692;45.642;13.806;2023-03-26T16:37:05;16.70;99.90
36444;DHT22;24692;45.642;13.806;2023-03-26T16:39:50;16.70;99.90
36444;DHT22;24692;45.642;13.806;2023-03-26T16:48:20;16.60;99.90
36444;DHT22;24692;45.642;13.806;2023-03-26T16:51:15;16.50;99.90
36444;DHT22;24692;45.642;13.806;2023-03-26T17:02:30;16.20;99.90
36444;DHT22;24692;45.642;13.806;2023-03-26T17:07:47;16.10;99.90
36444;DHT22;24692;45.642;13.806;2023-03-26T17:11:08;16.10;99.90
36444;DHT22;24692;45.642;13.806;2023-03-26T17:13:10;16.00;99.90
36444;DHT22;24692;45.642;13.806;2023-03-26T17:18:37;15.90;99.90
36444;DHT22;24692;45.642;13.806;2023-03-26T17:21:16;15.70;99.90
36444;DHT22;24692;45.642;13.806;2023-03-26T17:36:57;14.20;99.90
36444;DHT22;24692;45.642;13.806;2023-03-26T17:42:18;13.90;99.90
36444;DHT22;24692;45.642;13.806;2023-03-26T17:45:21;13.90;99.90
36444;DHT22;24692;45.642;13.806;2023-03-26T17:47:55;13.90;99.90
36444;DHT22;24692;45.642;13.806;2023-03-26T17:50:30;13.90;99.90
36444;DHT22;24692;45.642;13.806;2023-03-26T17:53:02;13.90;99.90
36444;DHT22;24692;45.642;13.806;2023-03-26T17:55:33;13.90;99.90
36444;DHT22;24692;45.642;13.806;2023-03-26T17:58:03;13.90;99.90
36444;DHT22;24692;45.642;13.806;2023-03-26T18:00:39;13.80;99.90
36444;DHT22;24692;45.642;13.806;2023-03-26T18:03:27;13.60;99.90
36444;DHT22;24692;45.642;13.806;2023-03-26T18:05:59;13.50;99.90
36444;DHT22;24692;45.642;13.806;2023-03-26T18:15:21;13.40;99.90
36444;DHT22;24692;45.642;13.806;2023-03-26T18:17:20;13.40;99.90
36444;DHT22;24692;45.642;13.806;2023-03-26T18:19:54;13.30;99.90
36444;DHT22;24692;45.642;13.806;2023-03-26T18:22:25;13.10;99.90
36444;DHT22;24692;45.642;13.806;2023-03-26T18:24:55;13.00;99.90
36444;DHT22;24692;45.642;13.806;2023-03-26T18:27:25;12.80;99.90
36444;DHT22;24692;45.642;13.806;2023-03-26T18:32:24;12.50;99.90
36444;DHT22;24692;45.642;13.806;2023-03-26T18:34:59;12.40;99.90
36444;DHT22;24692;45.642;13.806;2023-03-26T18:37:29;12.40;99.90
36444;DHT22;24692;45.642;13.806;2023-03-26T18:40:07;12.40;99.90
36444;DHT22;24692;45.642;13.806;2023-03-26T18:42:35;12.40;99.90
36444;DHT22;24692;45.642;13.806;2023-03-26T18:45:06;12.40;99.90
36444;DHT22;24692;45.642;13.806;2023-03-26T18:47:33;12.40;99.90
36444;DHT22;24692;45.642;13.806;2023-03-26T18:50:01;12.30;99.90
36444;DHT22;24692;45.642;13.806;2023-03-26T18:52:27;12.30;99.90
36444;DHT22;24692;45.642;13.806;2023-03-26T18:54:55;12.20;99.90
36444;DHT22;24692;45.642;13.806;2023-03-26T18:57:23;12.20;99.90
36444;DHT22;24692;45.642;13.806;2023-03-26T18:59:51;12.00;99.90
36444;DHT22;24692;45.642;13.806;2023-03-26T19:02:19;12.00;99.90
36444;DHT22;24692;45.642;13.806;2023-03-26T19:04:48;11.90;99.90
36444;DHT22;24692;45.642;13.806;2023-03-26T19:07:24;11.90;99.90
36444;DHT22;24692;45.642;13.806;2023-03-26T19:09:52;11.90;99.90
36444;DHT22;24692;45.642;13.806;2023-03-26T19:12:26;12.00;99.90
36444;DHT22;24692;45.642;13.806;2023-03-26T19:17:20;12.10;99.90
36444;DHT22;24692;45.642;13.806;2023-03-26T19:19:46;12.00;99.90
36444;DHT22;24692;45.642;13.806;2023-03-26T19:22:13;12.10;99.90
36444;DHT22;24692;45.642;13.806;2023-03-26T19:24:40;12.10;99.90
36444;DHT22;24692;45.642;13.806;2023-03-26T19:27:06;12.20;99.90
36444;DHT22;24692;45.642;13.806;2023-03-26T19:29:34;12.30;99.90
36444;DHT22;24692;45.642;13.806;2023-03-26T19:32:26;12.20;99.90
36444;DHT22;24692;45.642;13.806;2023-03-26T19:34:52;12.10;99.90
36444;DHT22;24692;45.642;13.806;2023-03-26T19:37:25;12.10;99.90
36444;DHT22;24692;45.642;13.806;2023-03-26T19:39:58;12.00;99.90
36444;DHT22;24692;45.642;13.806;2023-03-26T19:42:30;12.00;99.90
36444;DHT22;24692;45.642;13.806;2023-03-26T19:45:02;12.00;99.90
36444;DHT22;24692;45.642;13.806;2023-03-26T19:47:40;11.90;99.90
36444;DHT22;24692;45.642;13.806;2023-03-26T19:50:26;12.00;99.90
36444;DHT22;24692;45.642;13.806;2023-03-26T19:53:13;11.90;99.90
36444;DHT22;24692;45.642;13.806;2023-03-26T19:56:33;11.70;99.90
36444;DHT22;24692;45.642;13.806;2023-03-26T19:58:42;11.70;99.90
36444;DHT22;24692;45.642;13.806;2023-03-26T20:01:20;11.70;99.90
36444;DHT22;24692;45.642;13.806;2023-03-26T20:03:49;11.70;99.90
36444;DHT22;24692;45.642;13.806;2023-03-26T20:06:18;11.70;99.90
36444;DHT22;24692;45.642;13.806;2023-03-26T20:08:44;11.60;99.90
36444;DHT22;24692;45.642;13.806;2023-03-26T20:11:15;11.60;99.90
36444;DHT22;24692;45.642;13.806;2023-03-26T20:13:42;11.60;99.90
36444;DHT22;24692;45.642;13.806;2023-03-26T20:16:27;11.60;99.90
36444;DHT22;24692;45.642;13.806;2023-03-26T20:18:53;11.60;99.90
36444;DHT22;24692;45.642;13.806;2023-03-26T20:21:22;11.60;99.90
36444;DHT22;24692;45.642;13.806;2023-03-26T20:23:48;11.60;99.90
36444;DHT22;24692;45.642;13.806;2023-03-26T20:26:18;11.60;99.90
36444;DHT22;24692;45.642;13.806;2023-03-26T20:28:44;11.50;99.90
36444;DHT22;24692;45.642;13.806;2023-03-26T20:31:30;11.60;99.90
36444;DHT22;24692;45.642;13.806;2023-03-26T20:33:56;11.70;99.90
36444;DHT22;24692;45.642;13.806;2023-03-26T20:36:22;11.70;99.90
36444;DHT22;24692;45.642;13.806;2023-03-26T20:38:48;11.60;99.90
36444;DHT22;24692;45.642;13.806;2023-03-26T20:41:14;11.60;99.90
36444;DHT22;24692;45.642;13.806;2023-03-26T20:43:41;11.60;99.90
36444;DHT22;24692;45.642;13.806;2023-03-26T20:46:14;11.50;99.90
36444;DHT22;24692;45.642;13.806;2023-03-26T20:48:40;11.60;99.90
36444;DHT22;24692;45.642;13.806;2023-03-26T20:51:09;11.60;99.90
36444;DHT22;24692;45.642;13.806;2023-03-26T20:53:41;11.60;99.90
36444;DHT22;24692;45.642;13.806;2023-03-26T20:56:12;11.60;99.90
36444;DHT22;24692;45.642;13.806;2023-03-26T20:58:38;11.70;99.90
36444;DHT22;24692;45.642;13.806;2023-03-26T21:01:05;11.80;99.90
36444;DHT22;24692;45.642;13.806;2023-03-26T21:03:31;11.80;99.90
36444;DHT22;24692;45.642;13.806;2023-03-26T21:06:01;11.90;99.90
36444;DHT22;24692;45.642;13.806;2023-03-26T21:08:27;11.90;99.90
36444;DHT22;24692;45.642;13.806;2023-03-26T21:11:00;11.90;99.90
36444;DHT22;24692;45.642;13.806;2023-03-26T21:13:42;12.00;99.90
36444;DHT22;24692;45.642;13.806;2023-03-26T21:16:10;12.10;99.90
36444;DHT22;24692;45.642;13.806;2023-03-26T21:18:37;12.10;99.90
36444;DHT22;24692;45.642;13.806;2023-03-26T21:21:06;12.00;99.90
36444;DHT22;24692;45.642;13.806;2023-03-26T21:23:42;11.80;99.90
36444;DHT22;24692;45.642;13.806;2023-03-26T21:28:42;11.50;99.90
36444;DHT22;24692;45.642;13.806;2023-03-26T21:31:17;11.40;99.90
36444;DHT22;24692;45.642;13.806;2023-03-26T21:33:44;11.40;99.90
36444;DHT22;24692;45.642;13.806;2023-03-26T21:36:11;11.30;99.90
36444;DHT22;24692;45.642;13.806;2023-03-26T21:38:37;11.20;99.90
36444;DHT22;24692;45.642;13.806;2023-03-26T21:41:04;11.10;99.90
36444;DHT22;24692;45.642;13.806;2023-03-26T21:43:30;11.00;99.90